sensor_id;sensor_type;location;lat;lon;timestamp;pressure;altitude;pressure_sealevel;temperature;humidity
43553;BME280;29153;42.696;23.218;2023-02-16T00:01:47;95702.91;;;-3.83;95.04
43553;BME280;29153;42.696;23.218;2023-02-16T00:04:31;95696.11;;;-3.84;95.01
43553;BME280;29153;42.696;23.218;2023-02-16T00:06:59;95701.28;;;-3.84;94.97
43553;BME280;29153;42.696;23.218;2023-02-16T00:09:26;95702.24;;;-3.85;94.91
43553;BME280;29153;42.696;23.218;2023-02-16T00:11:54;95706.30;;;-3.86;94.99
43553;BME280;29153;42.696;23.218;2023-02-16T00:14:39;95701.62;;;-3.83;94.84
43553;BME280;29153;42.696;23.218;2023-02-16T00:17:09;95700.16;;;-3.85;94.37
43553;BME280;29153;42.696;23.218;2023-02-16T00:19:39;95696.53;;;-4.00;94.22
43553;BME280;29153;42.696;23.218;2023-02-16T00:22:07;95699.80;;;-3.94;94.33
43553;BME280;29153;42.696;23.218;2023-02-16T00:24:36;95699.78;;;-3.98;94.43
43553;BME280;29153;42.696;23.218;2023-02-16T00:27:13;95700.55;;;-4.02;94.46
43553;BME280;29153;42.696;23.218;2023-02-16T00:29:40;95697.16;;;-4.06;94.33
43553;BME280;29153;42.696;23.218;2023-02-16T00:32:09;95697.66;;;-4.03;94.75
43553;BME280;29153;42.696;23.218;2023-02-16T00:34:41;95694.59;;;-4.02;94.75
43553;BME280;29153;42.696;23.218;2023-02-16T00:37:11;95692.79;;;-4.02;94.87
43553;BME280;29153;42.696;23.218;2023-02-16T00:39:41;95697.18;;;-4.02;94.54
43553;BME280;29153;42.696;23.218;2023-02-16T00:42:17;95701.15;;;-4.16;94.17
43553;BME280;29153;42.696;23.218;2023-02-16T00:44:51;95705.81;;;-4.24;94.50
43553;BME280;29153;42.696;23.218;2023-02-16T00:47:35;95698.62;;;-4.34;95.06
43553;BME280;29153;42.696;23.218;2023-02-16T00:52:51;95698.12;;;-4.37;96.04
43553;BME280;29153;42.696;23.218;2023-02-16T00:55:21;95697.36;;;-4.30;95.87
43553;BME280;29153;42.696;23.218;2023-02-16T01:00:47;95700.73;;;-4.33;95.29
43553;BME280;29153;42.696;23.218;2023-02-16T01:03:25;95698.17;;;-4.29;95.36
43553;BME280;29153;42.696;23.218;2023-02-16T01:05:52;95694.37;;;-4.43;95.39
43553;BME280;29153;42.696;23.218;2023-02-16T01:08:22;95687.41;;;-4.46;95.74
43553;BME280;29153;42.696;23.218;2023-02-16T01:11:07;95693.08;;;-4.43;95.72
43553;BME280;29153;42.696;23.218;2023-02-16T01:13:50;95694.53;;;-4.40;95.84
43553;BME280;29153;42.696;23.218;2023-02-16T01:16:25;95686.63;;;-4.39;95.56
43553;BME280;29153;42.696;23.218;2023-02-16T01:18:49;95686.55;;;-4.55;95.25
43553;BME280;29153;42.696;23.218;2023-02-16T01:21:16;95690.30;;;-4.49;95.69
43553;BME280;29153;42.696;23.218;2023-02-16T01:23:44;95682.85;;;-4.48;95.54
43553;BME280;29153;42.696;23.218;2023-02-16T01:26:14;95681.34;;;-4.59;95.58
43553;BME280;29153;42.696;23.218;2023-02-16T01:28:43;95678.87;;;-4.65;96.02
43553;BME280;29153;42.696;23.218;2023-02-16T01:31:12;95682.95;;;-4.62;96.39
43553;BME280;29153;42.696;23.218;2023-02-16T01:33:40;95674.73;;;-4.53;96.52
43553;BME280;29153;42.696;23.218;2023-02-16T01:36:45;95671.87;;;-4.50;96.39
43553;BME280;29153;42.696;23.218;2023-02-16T01:39:11;95667.66;;;-4.51;96.14
43553;BME280;29153;42.696;23.218;2023-02-16T01:47:35;95657.45;;;-4.53;95.80
43553;BME280;29153;42.696;23.218;2023-02-16T01:50:26;95657.72;;;-4.64;96.13
43553;BME280;29153;42.696;23.218;2023-02-16T01:53:25;95654.98;;;-4.67;96.44
43553;BME280;29153;42.696;23.218;2023-02-16T01:55:44;95655.14;;;-4.64;96.72
43553;BME280;29153;42.696;23.218;2023-02-16T02:01:43;95648.74;;;-4.52;96.16
43553;BME280;29153;42.696;23.218;2023-02-16T02:11:00;95647.50;;;-4.70;96.33
43553;BME280;29153;42.696;23.218;2023-02-16T02:16:30;95655.28;;;-4.66;96.34
43553;BME280;29153;42.696;23.218;2023-02-16T02:18:58;95651.59;;;-4.63;96.15
43553;BME280;29153;42.696;23.218;2023-02-16T02:21:42;95648.16;;;-4.72;96.00
43553;BME280;29153;42.696;23.218;2023-02-16T02:27:33;95642.51;;;-4.71;96.15
43553;BME280;29153;42.696;23.218;2023-02-16T02:30:33;95642.65;;;-4.73;95.97
43553;BME280;29153;42.696;23.218;2023-02-16T02:41:52;95639.30;;;-4.65;95.73
43553;BME280;29153;42.696;23.218;2023-02-16T02:44:45;95637.48;;;-4.73;95.41
43553;BME280;29153;42.696;23.218;2023-02-16T02:47:22;95640.63;;;-4.83;95.64
43553;BME280;29153;42.696;23.218;2023-02-16T02:49:52;95645.64;;;-4.85;96.06
43553;BME280;29153;42.696;23.218;2023-02-16T02:52:20;95648.67;;;-4.90;96.13
43553;BME280;29153;42.696;23.218;2023-02-16T02:54:49;95648.17;;;-4.93;96.49
43553;BME280;29153;42.696;23.218;2023-02-16T02:57:37;95645.97;;;-4.84;96.55
43553;BME280;29153;42.696;23.218;2023-02-16T03:03:45;95654.00;;;-4.87;96.21
43553;BME280;29153;42.696;23.218;2023-02-16T03:06:35;95653.55;;;-4.83;95.86
43553;BME280;29153;42.696;23.218;2023-02-16T03:09:23;95648.48;;;-4.96;95.81
43553;BME280;29153;42.696;23.218;2023-02-16T03:11:52;95655.86;;;-5.01;96.14
43553;BME280;29153;42.696;23.218;2023-02-16T03:17:32;95652.80;;;-5.01;96.13
43553;BME280;29153;42.696;23.218;2023-02-16T03:20:15;95654.09;;;-5.01;96.21
43553;BME280;29153;42.696;23.218;2023-02-16T03:23:01;95655.72;;;-4.96;96.14
43553;BME280;29153;42.696;23.218;2023-02-16T03:25:47;95648.78;;;-4.95;96.08
43553;BME280;29153;42.696;23.218;2023-02-16T03:28:36;95655.13;;;-4.90;95.85
43553;BME280;29153;42.696;23.218;2023-02-16T03:31:32;95649.15;;;-4.90;95.53
43553;BME280;29153;42.696;23.218;2023-02-16T03:34:32;95642.75;;;-5.04;95.41
43553;BME280;29153;42.696;23.218;2023-02-16T03:37:03;95647.35;;;-4.94;95.66
43553;BME280;29153;42.696;23.218;2023-02-16T03:39:32;95638.90;;;-5.00;95.58
43553;BME280;29153;42.696;23.218;2023-02-16T03:42:01;95639.07;;;-5.01;95.54
43553;BME280;29153;42.696;23.218;2023-02-16T03:44:28;95636.27;;;-5.08;95.28
43553;BME280;29153;42.696;23.218;2023-02-16T03:46:56;95639.16;;;-5.11;95.23
43553;BME280;29153;42.696;23.218;2023-02-16T03:49:23;95637.89;;;-5.07;95.45
43553;BME280;29153;42.696;23.218;2023-02-16T03:51:51;95639.55;;;-5.02;95.45
43553;BME280;29153;42.696;23.218;2023-02-16T03:54:18;95642.50;;;-4.97;95.50
43553;BME280;29153;42.696;23.218;2023-02-16T03:56:45;95645.72;;;-4.95;95.40
43553;BME280;29153;42.696;23.218;2023-02-16T03:59:13;95645.80;;;-5.05;95.44
43553;BME280;29153;42.696;23.218;2023-02-16T04:01:40;95644.73;;;-4.98;95.35
43553;BME280;29153;42.696;23.218;2023-02-16T04:04:08;95637.41;;;-5.07;95.02
43553;BME280;29153;42.696;23.218;2023-02-16T04:06:35;95640.41;;;-5.15;95.44
43553;BME280;29153;42.696;23.218;2023-02-16T04:09:02;95637.89;;;-5.07;95.70
43553;BME280;29153;42.696;23.218;2023-02-16T04:11:30;95634.36;;;-5.06;95.49
43553;BME280;29153;42.696;23.218;2023-02-16T04:14:15;95632.41;;;-5.04;95.27
43553;BME280;29153;42.696;23.218;2023-02-16T04:16:43;95630.11;;;-5.11;95.20
43553;BME280;29153;42.696;23.218;2023-02-16T04:19:11;95624.16;;;-5.08;95.37
43553;BME280;29153;42.696;23.218;2023-02-16T04:21:39;95629.77;;;-5.12;95.28
43553;BME280;29153;42.696;23.218;2023-02-16T04:24:08;95628.28;;;-5.19;95.40
43553;BME280;29153;42.696;23.218;2023-02-16T04:26:35;95623.29;;;-5.16;95.73
43553;BME280;29153;42.696;23.218;2023-02-16T04:29:03;95627.36;;;-5.14;95.68
43553;BME280;29153;42.696;23.218;2023-02-16T04:31:30;95627.81;;;-5.18;95.54
43553;BME280;29153;42.696;23.218;2023-02-16T04:33:58;95625.90;;;-5.12;95.50
43553;BME280;29153;42.696;23.218;2023-02-16T04:36:25;95627.47;;;-5.19;95.01
43553;BME280;29153;42.696;23.218;2023-02-16T04:38:53;95622.72;;;-5.28;94.96
43553;BME280;29153;42.696;23.218;2023-02-16T04:41:20;95630.47;;;-5.28;95.13
43553;BME280;29153;42.696;23.218;2023-02-16T04:43:47;95631.90;;;-5.29;94.91
43553;BME280;29153;42.696;23.218;2023-02-16T04:46:15;95638.59;;;-5.40;94.83
43553;BME280;29153;42.696;23.218;2023-02-16T04:48:44;95639.55;;;-5.41;94.86
43553;BME280;29153;42.696;23.218;2023-02-16T04:51:12;95644.95;;;-5.53;94.83
43553;BME280;29153;42.696;23.218;2023-02-16T04:53:40;95636.35;;;-5.57;94.92
43553;BME280;29153;42.696;23.218;2023-02-16T04:56:26;95636.48;;;-5.59;95.02
43553;BME280;29153;42.696;23.218;2023-02-16T04:58:55;95641.72;;;-5.51;95.00
43553;BME280;29153;42.696;23.218;2023-02-16T05:01:24;95639.07;;;-5.41;94.73
43553;BME280;29153;42.696;23.218;2023-02-16T05:03:52;95647.25;;;-5.45;94.64
43553;BME280;29153;42.696;23.218;2023-02-16T05:06:20;95644.70;;;-5.59;94.79
43553;BME280;29153;42.696;23.218;2023-02-16T05:08:47;95650.64;;;-5.63;94.89
43553;BME280;29153;42.696;23.218;2023-02-16T05:11:15;95650.17;;;-5.62;95.02
43553;BME280;29153;42.696;23.218;2023-02-16T05:14:01;95648.74;;;-5.61;95.15
43553;BME280;29153;42.696;23.218;2023-02-16T05:16:46;95650.03;;;-5.61;95.22
43553;BME280;29153;42.696;23.218;2023-02-16T05:19:16;95652.92;;;-5.60;95.35
43553;BME280;29153;42.696;23.218;2023-02-16T05:21:43;95657.20;;;-5.51;95.36
43553;BME280;29153;42.696;23.218;2023-02-16T05:24:11;95655.61;;;-5.47;95.11
43553;BME280;29153;42.696;23.218;2023-02-16T05:26:39;95552.50;;;-6.10;94.62
43553;BME280;29153;42.696;23.218;2023-02-16T05:29:06;95651.09;;;-5.49;94.48
43553;BME280;29153;42.696;23.218;2023-02-16T05:31:34;95660.94;;;-5.49;94.32
43553;BME280;29153;42.696;23.218;2023-02-16T05:34:01;95656.91;;;-5.47;94.29
43553;BME280;29153;42.696;23.218;2023-02-16T05:36:29;95659.69;;;-5.45;94.28
43553;BME280;29153;42.696;23.218;2023-02-16T05:38:56;95661.02;;;-5.41;94.30
43553;BME280;29153;42.696;23.218;2023-02-16T05:41:24;95664.37;;;-5.44;94.28
43553;BME280;29153;42.696;23.218;2023-02-16T05:43:53;95660.88;;;-5.39;94.44
43553;BME280;29153;42.696;23.218;2023-02-16T05:46:22;95673.18;;;-5.33;94.35
43553;BME280;29153;42.696;23.218;2023-02-16T05:48:50;95669.98;;;-5.31;94.15
43553;BME280;29153;42.696;23.218;2023-02-16T05:51:18;95673.05;;;-5.32;93.79
43553;BME280;29153;42.696;23.218;2023-02-16T05:53:46;95665.06;;;-5.38;93.70
43553;BME280;29153;42.696;23.218;2023-02-16T05:56:14;95672.50;;;-5.39;93.92
43553;BME280;29153;42.696;23.218;2023-02-16T05:58:41;95680.41;;;-5.37;94.05
43553;BME280;29153;42.696;23.218;2023-02-16T06:01:08;95684.19;;;-5.31;94.05
43553;BME280;29153;42.696;23.218;2023-02-16T06:03:36;95684.56;;;-5.26;94.24
43553;BME280;29153;42.696;23.218;2023-02-16T06:06:04;95685.75;;;-5.34;94.67
43553;BME280;29153;42.696;23.218;2023-02-16T06:08:32;95682.80;;;-5.22;94.98
43553;BME280;29153;42.696;23.218;2023-02-16T06:11:00;95691.80;;;-5.08;95.02
43553;BME280;29153;42.696;23.218;2023-02-16T06:13:28;95697.03;;;-5.00;95.04
43553;BME280;29153;42.696;23.218;2023-02-16T06:15:56;95693.83;;;-4.98;95.04
43553;BME280;29153;42.696;23.218;2023-02-16T06:18:23;95697.28;;;-4.89;95.21
43553;BME280;29153;42.696;23.218;2023-02-16T06:20:51;95698.44;;;-4.88;95.40
43553;BME280;29153;42.696;23.218;2023-02-16T06:23:19;95701.42;;;-4.75;95.61
43553;BME280;29153;42.696;23.218;2023-02-16T06:25:48;95694.50;;;-4.70;95.84
43553;BME280;29153;42.696;23.218;2023-02-16T06:28:17;95699.08;;;-4.64;96.18
43553;BME280;29153;42.696;23.218;2023-02-16T06:30:45;95701.88;;;-4.53;96.44
43553;BME280;29153;42.696;23.218;2023-02-16T06:33:12;95705.84;;;-4.45;96.78
43553;BME280;29153;42.696;23.218;2023-02-16T06:35:39;95707.34;;;-4.35;97.28
43553;BME280;29153;42.696;23.218;2023-02-16T06:38:07;95703.05;;;-4.22;97.65
43553;BME280;29153;42.696;23.218;2023-02-16T06:40:34;95698.39;;;-4.15;98.10
43553;BME280;29153;42.696;23.218;2023-02-16T06:43:02;95700.27;;;-3.99;98.24
43553;BME280;29153;42.696;23.218;2023-02-16T06:45:29;95699.00;;;-3.91;98.56
43553;BME280;29153;42.696;23.218;2023-02-16T06:47:57;95705.18;;;-3.80;98.88
43553;BME280;29153;42.696;23.218;2023-02-16T06:50:24;95706.20;;;-3.69;99.36
43553;BME280;29153;42.696;23.218;2023-02-16T06:52:52;95704.14;;;-3.53;100.00
43553;BME280;29153;42.696;23.218;2023-02-16T06:55:20;95714.87;;;-3.36;100.00
43553;BME280;29153;42.696;23.218;2023-02-16T06:57:47;95701.45;;;-3.27;100.00
43553;BME280;29153;42.696;23.218;2023-02-16T07:00:15;95700.31;;;-3.16;100.00
43553;BME280;29153;42.696;23.218;2023-02-16T07:02:43;95701.31;;;-3.01;100.00
43553;BME280;29153;42.696;23.218;2023-02-16T07:05:12;95697.28;;;-2.88;100.00
43553;BME280;29153;42.696;23.218;2023-02-16T07:07:39;95700.50;;;-2.73;100.00
43553;BME280;29153;42.696;23.218;2023-02-16T07:10:07;95696.77;;;-2.59;100.00
43553;BME280;29153;42.696;23.218;2023-02-16T07:12:35;95685.55;;;-2.39;100.00
43553;BME280;29153;42.696;23.218;2023-02-16T07:15:02;95685.98;;;-2.11;100.00
43553;BME280;29153;42.696;23.218;2023-02-16T07:17:30;95682.11;;;-1.72;100.00
43553;BME280;29153;42.696;23.218;2023-02-16T07:19:58;95675.36;;;-1.28;100.00
43553;BME280;29153;42.696;23.218;2023-02-16T07:22:25;95671.66;;;-0.65;100.00
43553;BME280;29153;42.696;23.218;2023-02-16T07:24:55;95669.56;;;-0.03;100.00
43553;BME280;29153;42.696;23.218;2023-02-16T07:27:23;95674.91;;;0.54;96.28
43553;BME280;29153;42.696;23.218;2023-02-16T07:29:51;95669.75;;;0.97;93.46
43553;BME280;29153;42.696;23.218;2023-02-16T07:32:19;95667.38;;;1.33;91.54
43553;BME280;29153;42.696;23.218;2023-02-16T07:34:46;95664.33;;;1.68;89.37
43553;BME280;29153;42.696;23.218;2023-02-16T07:37:14;95669.50;;;1.90;87.21
43553;BME280;29153;42.696;23.218;2023-02-16T07:39:42;95666.96;;;2.20;85.57
43553;BME280;29153;42.696;23.218;2023-02-16T07:42:09;95671.77;;;2.34;84.17
43553;BME280;29153;42.696;23.218;2023-02-16T07:44:37;95662.17;;;2.47;83.22
43553;BME280;29153;42.696;23.218;2023-02-16T07:47:04;95665.89;;;2.72;82.46
43553;BME280;29153;42.696;23.218;2023-02-16T07:49:32;95670.35;;;2.92;81.27
43553;BME280;29153;42.696;23.218;2023-02-16T07:51:59;95670.27;;;2.96;81.83
43553;BME280;29153;42.696;23.218;2023-02-16T07:54:26;95675.74;;;3.14;80.94
43553;BME280;29153;42.696;23.218;2023-02-16T07:56:54;95679.48;;;3.15;80.21
43553;BME280;29153;42.696;23.218;2023-02-16T07:59:21;95671.53;;;3.26;80.46
43553;BME280;29153;42.696;23.218;2023-02-16T08:01:49;95678.92;;;3.46;79.90
43553;BME280;29153;42.696;23.218;2023-02-16T08:04:16;95674.06;;;3.43;80.15
43553;BME280;29153;42.696;23.218;2023-02-16T08:06:44;95674.30;;;3.55;79.90
43553;BME280;29153;42.696;23.218;2023-02-16T08:09:14;95674.98;;;3.53;79.18
43553;BME280;29153;42.696;23.218;2023-02-16T08:11:41;95674.69;;;3.72;80.67
43553;BME280;29153;42.696;23.218;2023-02-16T08:14:09;95681.33;;;3.74;79.80
43553;BME280;29153;42.696;23.218;2023-02-16T08:16:37;95679.83;;;3.76;79.28
43553;BME280;29153;42.696;23.218;2023-02-16T08:19:04;95685.77;;;3.67;78.59
43553;BME280;29153;42.696;23.218;2023-02-16T08:21:33;95685.77;;;3.67;79.70
43553;BME280;29153;42.696;23.218;2023-02-16T08:24:04;95694.81;;;3.51;78.58
43553;BME280;29153;42.696;23.218;2023-02-16T08:26:37;95694.54;;;3.50;78.62
43553;BME280;29153;42.696;23.218;2023-02-16T08:29:06;95688.98;;;3.56;79.21
43553;BME280;29153;42.696;23.218;2023-02-16T08:31:39;95683.76;;;3.62;81.56
43553;BME280;29153;42.696;23.218;2023-02-16T08:34:07;95691.59;;;3.56;79.33
43553;BME280;29153;42.696;23.218;2023-02-16T08:36:36;95686.77;;;3.66;79.25
43553;BME280;29153;42.696;23.218;2023-02-16T08:39:11;95690.91;;;3.71;78.18
43553;BME280;29153;42.696;23.218;2023-02-16T08:41:37;95691.70;;;3.65;78.49
43553;BME280;29153;42.696;23.218;2023-02-16T08:44:06;95690.80;;;3.62;78.40
43553;BME280;29153;42.696;23.218;2023-02-16T08:46:35;95689.67;;;3.28;78.49
43553;BME280;29153;42.696;23.218;2023-02-16T08:49:06;95690.09;;;3.44;78.88
43553;BME280;29153;42.696;23.218;2023-02-16T08:51:36;95687.36;;;3.68;78.53
43553;BME280;29153;42.696;23.218;2023-02-16T08:54:05;95688.08;;;3.66;77.62
43553;BME280;29153;42.696;23.218;2023-02-16T08:56:37;95685.76;;;3.74;78.10
43553;BME280;29153;42.696;23.218;2023-02-16T08:59:04;95680.31;;;3.82;77.58
43553;BME280;29153;42.696;23.218;2023-02-16T09:01:32;95685.56;;;3.88;76.84
43553;BME280;29153;42.696;23.218;2023-02-16T09:07:57;95680.84;;;4.36;75.94
43553;BME280;29153;42.696;23.218;2023-02-16T09:10:24;95682.80;;;4.19;75.37
43553;BME280;29153;42.696;23.218;2023-02-16T09:12:52;95685.13;;;4.46;74.06
43553;BME280;29153;42.696;23.218;2023-02-16T09:15:20;95686.21;;;4.54;74.12
43553;BME280;29153;42.696;23.218;2023-02-16T09:17:47;95686.44;;;4.46;72.09
43553;BME280;29153;42.696;23.218;2023-02-16T09:20:15;95687.05;;;4.48;72.64
43553;BME280;29153;42.696;23.218;2023-02-16T09:25:35;95671.92;;;4.95;74.23
43553;BME280;29153;42.696;23.218;2023-02-16T09:28:04;95679.78;;;5.17;71.22
43553;BME280;29153;42.696;23.218;2023-02-16T09:30:36;95676.89;;;5.25;71.09
43553;BME280;29153;42.696;23.218;2023-02-16T09:33:04;95679.64;;;5.37;69.75
43553;BME280;29153;42.696;23.218;2023-02-16T09:35:33;95677.95;;;5.33;69.91
43553;BME280;29153;42.696;23.218;2023-02-16T09:38:00;95673.53;;;5.27;70.19
43553;BME280;29153;42.696;23.218;2023-02-16T09:40:28;95670.02;;;5.56;69.27
43553;BME280;29153;42.696;23.218;2023-02-16T09:43:06;95670.16;;;5.61;68.41
43553;BME280;29153;42.696;23.218;2023-02-16T09:45:43;95671.10;;;5.57;68.17
43553;BME280;29153;42.696;23.218;2023-02-16T09:48:22;95668.84;;;5.61;68.30
43553;BME280;29153;42.696;23.218;2023-02-16T09:50:45;95663.48;;;5.74;68.96
43553;BME280;29153;42.696;23.218;2023-02-16T09:53:20;95659.75;;;5.63;69.12
43553;BME280;29153;42.696;23.218;2023-02-16T09:58:44;95649.36;;;6.18;69.51
43553;BME280;29153;42.696;23.218;2023-02-16T10:03:59;95640.07;;;6.33;67.90
43553;BME280;29153;42.696;23.218;2023-02-16T10:09:16;95639.72;;;6.48;66.35
43553;BME280;29153;42.696;23.218;2023-02-16T10:11:55;95638.04;;;6.63;66.05
43553;BME280;29153;42.696;23.218;2023-02-16T10:17:21;95633.13;;;7.05;64.50
43553;BME280;29153;42.696;23.218;2023-02-16T10:20:00;95621.19;;;7.23;65.31
43553;BME280;29153;42.696;23.218;2023-02-16T10:22:31;95620.56;;;7.40;63.76
43553;BME280;29153;42.696;23.218;2023-02-16T10:25:10;95626.30;;;7.27;63.91
43553;BME280;29153;42.696;23.218;2023-02-16T10:27:40;95622.48;;;7.32;64.32
43553;BME280;29153;42.696;23.218;2023-02-16T10:30:16;95625.69;;;7.55;61.62
43553;BME280;29153;42.696;23.218;2023-02-16T10:32:56;95620.95;;;7.46;61.41
43553;BME280;29153;42.696;23.218;2023-02-16T10:35:47;95613.38;;;7.38;62.31
43553;BME280;29153;42.696;23.218;2023-02-16T10:43:49;95610.84;;;7.75;61.47
43553;BME280;29153;42.696;23.218;2023-02-16T10:46:22;95597.27;;;7.81;60.57
43553;BME280;29153;42.696;23.218;2023-02-16T10:48:52;95602.14;;;7.86;59.81
43553;BME280;29153;42.696;23.218;2023-02-16T10:51:22;95600.88;;;7.77;61.06
43553;BME280;29153;42.696;23.218;2023-02-16T10:54:00;95597.84;;;7.94;60.34
43553;BME280;29153;42.696;23.218;2023-02-16T10:56:51;95596.75;;;8.04;59.54
43553;BME280;29153;42.696;23.218;2023-02-16T10:59:21;95587.58;;;7.95;59.15
43553;BME280;29153;42.696;23.218;2023-02-16T11:01:54;95584.38;;;8.19;60.77
43553;BME280;29153;42.696;23.218;2023-02-16T11:04:39;95585.30;;;8.36;59.00
43553;BME280;29153;42.696;23.218;2023-02-16T11:07:20;95578.03;;;8.29;59.45
43553;BME280;29153;42.696;23.218;2023-02-16T11:09:46;95564.05;;;8.57;59.64
43553;BME280;29153;42.696;23.218;2023-02-16T11:12:22;95567.19;;;8.68;59.54
43553;BME280;29153;42.696;23.218;2023-02-16T11:14:53;95569.45;;;8.76;59.09
43553;BME280;29153;42.696;23.218;2023-02-16T11:17:21;95567.59;;;8.91;57.35
43553;BME280;29153;42.696;23.218;2023-02-16T11:19:58;95563.08;;;8.35;57.09
43553;BME280;29153;42.696;23.218;2023-02-16T11:22:31;95560.71;;;8.61;57.89
43553;BME280;29153;42.696;23.218;2023-02-16T11:27:59;95553.37;;;8.63;56.12
43553;BME280;29153;42.696;23.218;2023-02-16T11:30:39;95551.53;;;8.64;57.15
43553;BME280;29153;42.696;23.218;2023-02-16T11:33:23;95548.87;;;8.78;56.87
43553;BME280;29153;42.696;23.218;2023-02-16T11:35:53;95538.14;;;8.68;57.18
43553;BME280;29153;42.696;23.218;2023-02-16T11:38:35;95543.78;;;8.88;56.35
43553;BME280;29153;42.696;23.218;2023-02-16T11:41:05;95540.84;;;8.87;56.21
43553;BME280;29153;42.696;23.218;2023-02-16T11:43:34;95540.39;;;8.76;55.94
43553;BME280;29153;42.696;23.218;2023-02-16T11:46:16;95536.59;;;8.86;54.90
43553;BME280;29153;42.696;23.218;2023-02-16T11:48:43;95531.70;;;8.92;55.21
43553;BME280;29153;42.696;23.218;2023-02-16T11:51:14;95527.52;;;9.10;56.66
43553;BME280;29153;42.696;23.218;2023-02-16T11:53:43;95533.06;;;9.11;54.75
43553;BME280;29153;42.696;23.218;2023-02-16T11:58:41;95520.51;;;9.19;55.67
43553;BME280;29153;42.696;23.218;2023-02-16T12:09:39;95512.29;;;9.34;54.20
43553;BME280;29153;42.696;23.218;2023-02-16T12:12:15;95507.17;;;9.11;54.04
43553;BME280;29153;42.696;23.218;2023-02-16T12:28:58;95486.45;;;9.22;54.89
43553;BME280;29153;42.696;23.218;2023-02-16T12:31:42;95480.77;;;9.13;54.46
43553;BME280;29153;42.696;23.218;2023-02-16T12:37:09;95468.27;;;9.26;53.94
43553;BME280;29153;42.696;23.218;2023-02-16T12:39:46;95474.34;;;9.43;54.40
43553;BME280;29153;42.696;23.218;2023-02-16T12:44:54;95462.11;;;9.37;53.39
43553;BME280;29153;42.696;23.218;2023-02-16T12:47:28;95456.32;;;9.40;52.84
43553;BME280;29153;42.696;23.218;2023-02-16T12:50:01;95459.51;;;9.42;53.74
43553;BME280;29153;42.696;23.218;2023-02-16T12:55:59;95451.42;;;9.48;52.57
43553;BME280;29153;42.696;23.218;2023-02-16T12:58:43;95447.39;;;9.46;53.29
43553;BME280;29153;42.696;23.218;2023-02-16T13:04:16;95450.55;;;9.62;53.75
43553;BME280;29153;42.696;23.218;2023-02-16T13:06:49;95442.41;;;9.66;53.07
43553;BME280;29153;42.696;23.218;2023-02-16T13:12:30;95437.34;;;9.65;51.77
43553;BME280;29153;42.696;23.218;2023-02-16T13:15:29;95441.30;;;9.62;51.56
43553;BME280;29153;42.696;23.218;2023-02-16T13:18:25;95434.80;;;9.72;51.32
43553;BME280;29153;42.696;23.218;2023-02-16T13:20:28;95430.73;;;9.65;51.79
43553;BME280;29153;42.696;23.218;2023-02-16T13:23:10;95426.25;;;9.65;52.65
43553;BME280;29153;42.696;23.218;2023-02-16T13:25:34;95429.08;;;9.80;51.00
43553;BME280;29153;42.696;23.218;2023-02-16T13:31:09;95419.81;;;9.80;51.08
43553;BME280;29153;42.696;23.218;2023-02-16T13:33:48;95348.58;;;9.33;50.29
43553;BME280;29153;42.696;23.218;2023-02-16T13:44:08;95412.66;;;9.78;49.83
43553;BME280;29153;42.696;23.218;2023-02-16T13:46:43;95415.02;;;9.77;49.84
43553;BME280;29153;42.696;23.218;2023-02-16T13:49:36;95405.78;;;9.80;49.88
43553;BME280;29153;42.696;23.218;2023-02-16T13:52:06;95402.58;;;9.75;49.62
43553;BME280;29153;42.696;23.218;2023-02-16T13:54:37;95408.69;;;9.78;50.10
43553;BME280;29153;42.696;23.218;2023-02-16T13:57:13;95402.29;;;9.74;50.39
43553;BME280;29153;42.696;23.218;2023-02-16T13:59:56;95403.78;;;9.89;49.45
43553;BME280;29153;42.696;23.218;2023-02-16T14:05:09;95398.13;;;9.81;49.73
43553;BME280;29153;42.696;23.218;2023-02-16T14:07:38;95403.02;;;9.91;50.15
43553;BME280;29153;42.696;23.218;2023-02-16T14:10:07;95396.87;;;9.88;49.31
43553;BME280;29153;42.696;23.218;2023-02-16T14:12:36;95402.50;;;9.92;49.12
43553;BME280;29153;42.696;23.218;2023-02-16T14:15:16;95398.41;;;9.82;49.93
43553;BME280;29153;42.696;23.218;2023-02-16T14:17:35;95397.82;;;9.77;49.25
43553;BME280;29153;42.696;23.218;2023-02-16T14:27:52;95399.95;;;9.78;48.42
43553;BME280;29153;42.696;23.218;2023-02-16T14:33:20;95395.67;;;9.74;49.63
43553;BME280;29153;42.696;23.218;2023-02-16T14:38:31;95395.47;;;9.59;49.75
43553;BME280;29153;42.696;23.218;2023-02-16T14:41:03;95390.33;;;9.50;50.23
43553;BME280;29153;42.696;23.218;2023-02-16T14:43:42;95389.00;;;9.50;49.32
43553;BME280;29153;42.696;23.218;2023-02-16T14:46:44;95385.53;;;9.47;50.16
43553;BME280;29153;42.696;23.218;2023-02-16T14:55:09;95389.91;;;9.36;50.52
43553;BME280;29153;42.696;23.218;2023-02-16T15:00:35;95389.30;;;9.12;52.05
43553;BME280;29153;42.696;23.218;2023-02-16T15:05:57;95385.33;;;8.93;52.48
43553;BME280;29153;42.696;23.218;2023-02-16T15:08:29;95381.77;;;8.85;52.34
43553;BME280;29153;42.696;23.218;2023-02-16T15:11:00;95382.41;;;8.76;54.21
43553;BME280;29153;42.696;23.218;2023-02-16T15:13:31;95388.03;;;8.48;55.80
43553;BME280;29153;42.696;23.218;2023-02-16T15:16:02;95388.03;;;8.48;55.80
43553;BME280;29153;42.696;23.218;2023-02-16T15:18:46;95384.86;;;8.32;55.93
43553;BME280;29153;42.696;23.218;2023-02-16T15:21:18;95385.28;;;8.12;56.80
43553;BME280;29153;42.696;23.218;2023-02-16T15:23:56;95383.05;;;7.93;57.91
43553;BME280;29153;42.696;23.218;2023-02-16T15:26:30;95386.62;;;7.72;59.10
43553;BME280;29153;42.696;23.218;2023-02-16T15:29:12;95382.09;;;7.56;59.49
43553;BME280;29153;42.696;23.218;2023-02-16T15:31:34;95382.19;;;7.36;60.60
43553;BME280;29153;42.696;23.218;2023-02-16T15:34:05;95386.83;;;7.19;61.52
43553;BME280;29153;42.696;23.218;2023-02-16T15:36:36;95388.57;;;6.91;62.44
43553;BME280;29153;42.696;23.218;2023-02-16T15:39:11;95385.23;;;6.72;63.56
43553;BME280;29153;42.696;23.218;2023-02-16T15:41:44;95389.77;;;6.62;63.97
43553;BME280;29153;42.696;23.218;2023-02-16T15:44:30;95387.42;;;6.43;64.58
43553;BME280;29153;42.696;23.218;2023-02-16T15:47:14;95386.28;;;6.18;65.33
43553;BME280;29153;42.696;23.218;2023-02-16T15:49:43;95382.84;;;5.97;66.18